sensor_id;sensor_type;location;lat;lon;timestamp;temperature;humidity
21393;DHT22;10857;52.228;21.026;2023-12-29T00:02:16;7.10;99.90
21393;DHT22;10857;52.228;21.026;2023-12-29T00:04:43;7.10;99.90
21393;DHT22;10857;52.228;21.026;2023-12-29T00:07:10;7.10;99.90
21393;DHT22;10857;52.228;21.026;2023-12-29T00:09:38;7.10;99.90
21393;DHT22;10857;52.228;21.026;2023-12-29T00:12:08;7.00;99.90
21393;DHT22;10857;52.228;21.026;2023-12-29T00:14:39;7.00;99.90
21393;DHT22;10857;52.228;21.026;2023-12-29T00:17:07;7.10;99.90
21393;DHT22;10857;52.228;21.026;2023-12-29T00:19:34;7.00;99.90
21393;DHT22;10857;52.228;21.026;2023-12-29T00:22:01;7.00;99.90
21393;DHT22;10857;52.228;21.026;2023-12-29T00:24:30;7.00;99.90
21393;DHT22;10857;52.228;21.026;2023-12-29T00:27:01;7.00;99.90
21393;DHT22;10857;52.228;21.026;2023-12-29T00:29:29;7.00;99.90
21393;DHT22;10857;52.228;21.026;2023-12-29T00:32:01;7.00;99.90
21393;DHT22;10857;52.228;21.026;2023-12-29T00:34:31;7.00;99.90
21393;DHT22;10857;52.228;21.026;2023-12-29T00:37:00;7.00;99.90
21393;DHT22;10857;52.228;21.026;2023-12-29T00:39:27;7.00;99.90
21393;DHT22;10857;52.228;21.026;2023-12-29T00:41:58;7.00;99.90
21393;DHT22;10857;52.228;21.026;2023-12-29T00:44:25;7.00;99.90
21393;DHT22;10857;52.228;21.026;2023-12-29T00:46:52;6.90;99.90
21393;DHT22;10857;52.228;21.026;2023-12-29T00:49:20;6.90;99.90
21393;DHT22;10857;52.228;21.026;2023-12-29T00:51:48;6.90;99.90
21393;DHT22;10857;52.228;21.026;2023-12-29T00:54:15;6.90;99.90
21393;DHT22;10857;52.228;21.026;2023-12-29T00:56:50;6.90;99.90
21393;DHT22;10857;52.228;21.026;2023-12-29T00:59:18;6.90;99.90
21393;DHT22;10857;52.228;21.026;2023-12-29T01:01:45;6.80;99.90
21393;DHT22;10857;52.228;21.026;2023-12-29T01:04:13;6.80;99.90
21393;DHT22;10857;52.228;21.026;2023-12-29T01:06:40;6.80;99.90
21393;DHT22;10857;52.228;21.026;2023-12-29T01:09:08;6.80;99.90
21393;DHT22;10857;52.228;21.026;2023-12-29T01:11:39;6.80;99.90
21393;DHT22;10857;52.228;21.026;2023-12-29T01:14:07;6.80;99.90
21393;DHT22;10857;52.228;21.026;2023-12-29T01:16:34;6.80;99.90
21393;DHT22;10857;52.228;21.026;2023-12-29T01:19:01;6.70;99.90
21393;DHT22;10857;52.228;21.026;2023-12-29T01:21:28;6.70;99.90
21393;DHT22;10857;52.228;21.026;2023-12-29T01:23:55;6.70;99.90
21393;DHT22;10857;52.228;21.026;2023-12-29T01:26:22;6.70;99.90
21393;DHT22;10857;52.228;21.026;2023-12-29T01:28:49;6.70;99.90
21393;DHT22;10857;52.228;21.026;2023-12-29T01:31:16;6.60;99.90
21393;DHT22;10857;52.228;21.026;2023-12-29T01:33:44;6.60;99.90
21393;DHT22;10857;52.228;21.026;2023-12-29T01:36:17;6.60;99.90
21393;DHT22;10857;52.228;21.026;2023-12-29T01:38:51;6.50;99.90
21393;DHT22;10857;52.228;21.026;2023-12-29T01:41:22;6.50;99.90
21393;DHT22;10857;52.228;21.026;2023-12-29T01:46:31;6.50;99.90
21393;DHT22;10857;52.228;21.026;2023-12-29T01:49:00;6.50;99.90
21393;DHT22;10857;52.228;21.026;2023-12-29T01:51:29;6.50;99.90
21393;DHT22;10857;52.228;21.026;2023-12-29T01:53:58;6.40;99.90
21393;DHT22;10857;52.228;21.026;2023-12-29T01:56:26;6.40;99.90
21393;DHT22;10857;52.228;21.026;2023-12-29T01:58:55;6.40;99.90
21393;DHT22;10857;52.228;21.026;2023-12-29T02:01:36;6.40;99.90
21393;DHT22;10857;52.228;21.026;2023-12-29T02:04:06;6.30;99.90
21393;DHT22;10857;52.228;21.026;2023-12-29T02:06:34;6.30;99.90
21393;DHT22;10857;52.228;21.026;2023-12-29T02:09:02;6.20;99.90
21393;DHT22;10857;52.228;21.026;2023-12-29T02:11:32;6.20;99.90
21393;DHT22;10857;52.228;21.026;2023-12-29T02:14:01;6.10;99.90
21393;DHT22;10857;52.228;21.026;2023-12-29T02:16:38;6.10;99.90
21393;DHT22;10857;52.228;21.026;2023-12-29T02:19:19;6.10;99.90
21393;DHT22;10857;52.228;21.026;2023-12-29T02:21:51;6.10;99.90
21393;DHT22;10857;52.228;21.026;2023-12-29T02:24:18;6.10;99.90
21393;DHT22;10857;52.228;21.026;2023-12-29T02:26:49;6.10;99.90
21393;DHT22;10857;52.228;21.026;2023-12-29T02:29:20;6.10;99.90
21393;DHT22;10857;52.228;21.026;2023-12-29T02:31:51;6.00;99.90
21393;DHT22;10857;52.228;21.026;2023-12-29T02:34:19;6.00;99.90
21393;DHT22;10857;52.228;21.026;2023-12-29T02:36:50;6.00;99.90
21393;DHT22;10857;52.228;21.026;2023-12-29T02:39:18;6.00;99.90
21393;DHT22;10857;52.228;21.026;2023-12-29T02:41:45;5.90;99.90
21393;DHT22;10857;52.228;21.026;2023-12-29T02:44:13;5.90;99.90
21393;DHT22;10857;52.228;21.026;2023-12-29T02:46:40;5.90;99.90
21393;DHT22;10857;52.228;21.026;2023-12-29T02:49:07;5.90;99.90
21393;DHT22;10857;52.228;21.026;2023-12-29T02:51:39;5.80;99.90
21393;DHT22;10857;52.228;21.026;2023-12-29T02:54:07;5.80;99.90
21393;DHT22;10857;52.228;21.026;2023-12-29T02:56:34;5.70;99.90
21393;DHT22;10857;52.228;21.026;2023-12-29T02:59:02;5.70;99.90
21393;DHT22;10857;52.228;21.026;2023-12-29T03:01:29;5.60;99.90
21393;DHT22;10857;52.228;21.026;2023-12-29T03:03:57;5.60;99.90
21393;DHT22;10857;52.228;21.026;2023-12-29T03:06:24;5.60;99.90
21393;DHT22;10857;52.228;21.026;2023-12-29T03:08:51;5.60;99.90
21393;DHT22;10857;52.228;21.026;2023-12-29T03:11:19;5.60;99.90
21393;DHT22;10857;52.228;21.026;2023-12-29T03:13:46;5.60;99.90
21393;DHT22;10857;52.228;21.026;2023-12-29T03:16:13;5.50;99.90
21393;DHT22;10857;52.228;21.026;2023-12-29T03:18:40;5.60;99.90
21393;DHT22;10857;52.228;21.026;2023-12-29T03:21:09;5.50;99.90
21393;DHT22;10857;52.228;21.026;2023-12-29T03:23:36;5.50;99.90
21393;DHT22;10857;52.228;21.026;2023-12-29T03:26:03;5.50;99.90
21393;DHT22;10857;52.228;21.026;2023-12-29T03:28:30;5.50;99.90
21393;DHT22;10857;52.228;21.026;2023-12-29T03:30:58;5.50;99.90
21393;DHT22;10857;52.228;21.026;2023-12-29T03:33:25;5.40;99.90
21393;DHT22;10857;52.228;21.026;2023-12-29T03:35:52;5.40;99.90
21393;DHT22;10857;52.228;21.026;2023-12-29T03:38:19;5.40;99.90
21393;DHT22;10857;52.228;21.026;2023-12-29T03:40:46;5.40;99.90
21393;DHT22;10857;52.228;21.026;2023-12-29T03:43:13;5.40;99.90
21393;DHT22;10857;52.228;21.026;2023-12-29T03:45:41;5.30;99.90
21393;DHT22;10857;52.228;21.026;2023-12-29T03:48:08;5.30;99.90
21393;DHT22;10857;52.228;21.026;2023-12-29T03:50:36;5.30;99.90
21393;DHT22;10857;52.228;21.026;2023-12-29T03:53:03;5.30;99.90
21393;DHT22;10857;52.228;21.026;2023-12-29T03:55:30;5.20;99.90
21393;DHT22;10857;52.228;21.026;2023-12-29T03:57:58;5.20;99.90
21393;DHT22;10857;52.228;21.026;2023-12-29T04:00:25;5.30;99.90
21393;DHT22;10857;52.228;21.026;2023-12-29T04:02:52;5.20;99.90
21393;DHT22;10857;52.228;21.026;2023-12-29T04:05:19;5.20;99.90
21393;DHT22;10857;52.228;21.026;2023-12-29T04:07:46;5.20;99.90
21393;DHT22;10857;52.228;21.026;2023-12-29T04:10:14;5.20;99.90
21393;DHT22;10857;52.228;21.026;2023-12-29T04:12:41;5.20;99.90
21393;DHT22;10857;52.228;21.026;2023-12-29T04:15:08;5.20;99.90
21393;DHT22;10857;52.228;21.026;2023-12-29T04:17:35;5.20;99.90
21393;DHT22;10857;52.228;21.026;2023-12-29T04:20:03;5.20;99.90
21393;DHT22;10857;52.228;21.026;2023-12-29T04:22:30;5.20;99.90
21393;DHT22;10857;52.228;21.026;2023-12-29T04:24:57;5.20;99.90
21393;DHT22;10857;52.228;21.026;2023-12-29T04:27:24;5.10;99.90
21393;DHT22;10857;52.228;21.026;2023-12-29T04:29:52;5.10;99.90
21393;DHT22;10857;52.228;21.026;2023-12-29T04:32:19;5.20;99.90
21393;DHT22;10857;52.228;21.026;2023-12-29T04:34:46;5.10;99.90
21393;DHT22;10857;52.228;21.026;2023-12-29T04:37:13;5.20;99.90
21393;DHT22;10857;52.228;21.026;2023-12-29T04:39:40;5.20;99.90
21393;DHT22;10857;52.228;21.026;2023-12-29T04:42:07;5.20;99.90
21393;DHT22;10857;52.228;21.026;2023-12-29T04:44:34;5.20;99.90
21393;DHT22;10857;52.228;21.026;2023-12-29T04:47:01;5.10;99.90
21393;DHT22;10857;52.228;21.026;2023-12-29T04:49:29;5.20;99.90
21393;DHT22;10857;52.228;21.026;2023-12-29T04:51:56;5.10;99.90
21393;DHT22;10857;52.228;21.026;2023-12-29T04:54:23;5.20;99.90
21393;DHT22;10857;52.228;21.026;2023-12-29T04:56:51;5.10;99.90
21393;DHT22;10857;52.228;21.026;2023-12-29T04:59:18;5.10;99.90
21393;DHT22;10857;52.228;21.026;2023-12-29T05:01:45;5.20;99.90
21393;DHT22;10857;52.228;21.026;2023-12-29T05:04:12;5.20;99.90
21393;DHT22;10857;52.228;21.026;2023-12-29T05:06:41;5.20;99.90
21393;DHT22;10857;52.228;21.026;2023-12-29T05:09:09;5.20;99.90
21393;DHT22;10857;52.228;21.026;2023-12-29T05:11:36;5.30;99.90
21393;DHT22;10857;52.228;21.026;2023-12-29T05:14:03;5.30;99.90
21393;DHT22;10857;52.228;21.026;2023-12-29T05:16:30;5.30;99.90
21393;DHT22;10857;52.228;21.026;2023-12-29T05:18:57;5.40;99.90
21393;DHT22;10857;52.228;21.026;2023-12-29T05:21:24;5.40;99.90
21393;DHT22;10857;52.228;21.026;2023-12-29T05:23:52;5.40;99.90
21393;DHT22;10857;52.228;21.026;2023-12-29T05:26:20;5.40;99.90
21393;DHT22;10857;52.228;21.026;2023-12-29T05:28:47;5.50;99.90
21393;DHT22;10857;52.228;21.026;2023-12-29T05:31:14;5.50;99.90
21393;DHT22;10857;52.228;21.026;2023-12-29T05:33:41;5.60;99.90
21393;DHT22;10857;52.228;21.026;2023-12-29T05:36:09;5.60;99.90
21393;DHT22;10857;52.228;21.026;2023-12-29T05:38:37;5.60;99.90
21393;DHT22;10857;52.228;21.026;2023-12-29T05:41:04;5.70;99.90
21393;DHT22;10857;52.228;21.026;2023-12-29T05:43:33;5.80;99.90
21393;DHT22;10857;52.228;21.026;2023-12-29T05:46:01;5.80;99.90
21393;DHT22;10857;52.228;21.026;2023-12-29T05:48:28;5.80;99.90
21393;DHT22;10857;52.228;21.026;2023-12-29T05:50:55;5.90;99.90
21393;DHT22;10857;52.228;21.026;2023-12-29T05:53:22;5.90;99.90
21393;DHT22;10857;52.228;21.026;2023-12-29T05:55:50;6.00;99.90
21393;DHT22;10857;52.228;21.026;2023-12-29T05:58:17;6.00;99.90
21393;DHT22;10857;52.228;21.026;2023-12-29T06:00:44;6.10;99.90
21393;DHT22;10857;52.228;21.026;2023-12-29T06:03:11;6.10;99.90
21393;DHT22;10857;52.228;21.026;2023-12-29T06:05:39;6.10;99.90
21393;DHT22;10857;52.228;21.026;2023-12-29T06:08:06;6.20;99.90
21393;DHT22;10857;52.228;21.026;2023-12-29T06:10:33;6.10;99.90
21393;DHT22;10857;52.228;21.026;2023-12-29T06:13:02;6.20;99.90
21393;DHT22;10857;52.228;21.026;2023-12-29T06:15:30;6.30;99.90
21393;DHT22;10857;52.228;21.026;2023-12-29T06:17:57;6.30;99.90
21393;DHT22;10857;52.228;21.026;2023-12-29T06:20:25;6.30;99.90
21393;DHT22;10857;52.228;21.026;2023-12-29T06:22:52;6.30;99.90
21393;DHT22;10857;52.228;21.026;2023-12-29T06:25:20;6.30;99.90
21393;DHT22;10857;52.228;21.026;2023-12-29T06:27:47;6.30;99.90
21393;DHT22;10857;52.228;21.026;2023-12-29T06:30:15;6.30;99.90
21393;DHT22;10857;52.228;21.026;2023-12-29T06:32:42;6.30;99.90
21393;DHT22;10857;52.228;21.026;2023-12-29T06:35:09;6.40;99.90
21393;DHT22;10857;52.228;21.026;2023-12-29T06:37:38;6.40;99.90
21393;DHT22;10857;52.228;21.026;2023-12-29T06:40:09;6.40;99.90
21393;DHT22;10857;52.228;21.026;2023-12-29T06:42:36;6.40;99.90
21393;DHT22;10857;52.228;21.026;2023-12-29T06:45:04;6.40;99.90
21393;DHT22;10857;52.228;21.026;2023-12-29T06:47:35;6.40;99.90
21393;DHT22;10857;52.228;21.026;2023-12-29T06:50:02;6.40;99.90
21393;DHT22;10857;52.228;21.026;2023-12-29T06:52:30;6.40;99.90
21393;DHT22;10857;52.228;21.026;2023-12-29T06:55:01;6.40;99.90
21393;DHT22;10857;52.228;21.026;2023-12-29T06:57:28;6.40;99.90
21393;DHT22;10857;52.228;21.026;2023-12-29T06:59:55;6.40;99.90
21393;DHT22;10857;52.228;21.026;2023-12-29T07:02:23;6.40;99.90
21393;DHT22;10857;52.228;21.026;2023-12-29T07:04:50;6.40;99.90
21393;DHT22;10857;52.228;21.026;2023-12-29T07:07:17;6.40;99.90
21393;DHT22;10857;52.228;21.026;2023-12-29T07:09:44;6.40;99.90
21393;DHT22;10857;52.228;21.026;2023-12-29T07:12:11;6.30;99.90
21393;DHT22;10857;52.228;21.026;2023-12-29T07:14:40;6.30;99.90
21393;DHT22;10857;52.228;21.026;2023-12-29T07:17:07;6.30;99.90
21393;DHT22;10857;52.228;21.026;2023-12-29T07:19:34;6.30;99.90
21393;DHT22;10857;52.228;21.026;2023-12-29T07:22:05;6.20;99.90
21393;DHT22;10857;52.228;21.026;2023-12-29T07:24:36;6.20;99.90
21393;DHT22;10857;52.228;21.026;2023-12-29T07:27:03;6.20;99.90
21393;DHT22;10857;52.228;21.026;2023-12-29T07:29:31;6.20;99.90
21393;DHT22;10857;52.228;21.026;2023-12-29T07:31:58;6.20;99.90
21393;DHT22;10857;52.228;21.026;2023-12-29T07:34:26;6.20;99.90
21393;DHT22;10857;52.228;21.026;2023-12-29T07:36:54;6.20;99.90
21393;DHT22;10857;52.228;21.026;2023-12-29T07:39:21;6.30;99.90
21393;DHT22;10857;52.228;21.026;2023-12-29T07:41:48;6.30;99.90
21393;DHT22;10857;52.228;21.026;2023-12-29T07:44:17;6.30;99.90
21393;DHT22;10857;52.228;21.026;2023-12-29T07:46:44;6.30;99.90
21393;DHT22;10857;52.228;21.026;2023-12-29T07:49:12;6.30;99.90
21393;DHT22;10857;52.228;21.026;2023-12-29T07:51:45;6.30;99.90
21393;DHT22;10857;52.228;21.026;2023-12-29T07:54:13;6.30;99.90
21393;DHT22;10857;52.228;21.026;2023-12-29T07:56:40;6.30;99.90
21393;DHT22;10857;52.228;21.026;2023-12-29T07:59:07;6.30;99.90
21393;DHT22;10857;52.228;21.026;2023-12-29T08:01:34;6.30;99.90
21393;DHT22;10857;52.228;21.026;2023-12-29T08:04:04;6.30;99.90
21393;DHT22;10857;52.228;21.026;2023-12-29T08:06:31;6.30;99.90
21393;DHT22;10857;52.228;21.026;2023-12-29T08:08:58;6.30;99.90
21393;DHT22;10857;52.228;21.026;2023-12-29T08:11:25;6.30;99.90
21393;DHT22;10857;52.228;21.026;2023-12-29T08:13:52;6.30;99.90
21393;DHT22;10857;52.228;21.026;2023-12-29T08:16:19;6.30;99.90
21393;DHT22;10857;52.228;21.026;2023-12-29T08:18:48;6.30;99.90
21393;DHT22;10857;52.228;21.026;2023-12-29T08:21:19;6.30;99.90
21393;DHT22;10857;52.228;21.026;2023-12-29T08:23:47;6.30;99.90
21393;DHT22;10857;52.228;21.026;2023-12-29T08:26:15;6.30;99.90
21393;DHT22;10857;52.228;21.026;2023-12-29T08:28:42;6.30;99.90
21393;DHT22;10857;52.228;21.026;2023-12-29T08:31:09;6.40;99.90
21393;DHT22;10857;52.228;21.026;2023-12-29T08:33:37;6.40;99.90
21393;DHT22;10857;52.228;21.026;2023-12-29T08:36:04;6.40;99.90
21393;DHT22;10857;52.228;21.026;2023-12-29T08:38:31;6.40;99.90
21393;DHT22;10857;52.228;21.026;2023-12-29T08:40:59;6.40;99.90
21393;DHT22;10857;52.228;21.026;2023-12-29T08:43:26;6.40;99.90
21393;DHT22;10857;52.228;21.026;2023-12-29T08:45:53;6.50;99.90
21393;DHT22;10857;52.228;21.026;2023-12-29T08:48:22;6.50;99.90
21393;DHT22;10857;52.228;21.026;2023-12-29T08:50:50;6.50;99.90
21393;DHT22;10857;52.228;21.026;2023-12-29T08:53:19;6.60;99.90
21393;DHT22;10857;52.228;21.026;2023-12-29T08:55:46;6.60;99.90
21393;DHT22;10857;52.228;21.026;2023-12-29T08:58:13;6.70;99.90
21393;DHT22;10857;52.228;21.026;2023-12-29T09:00:41;6.80;99.90
21393;DHT22;10857;52.228;21.026;2023-12-29T09:03:08;6.80;99.90
21393;DHT22;10857;52.228;21.026;2023-12-29T09:05:35;6.90;99.90
21393;DHT22;10857;52.228;21.026;2023-12-29T09:08:02;6.90;99.90
21393;DHT22;10857;52.228;21.026;2023-12-29T09:10:29;7.10;99.90
21393;DHT22;10857;52.228;21.026;2023-12-29T09:12:56;7.20;99.90
21393;DHT22;10857;52.228;21.026;2023-12-29T09:15:24;7.30;99.90
21393;DHT22;10857;52.228;21.026;2023-12-29T09:17:51;7.40;99.90
21393;DHT22;10857;52.228;21.026;2023-12-29T09:20:18;7.40;99.90
21393;DHT22;10857;52.228;21.026;2023-12-29T09:22:45;7.50;99.90
21393;DHT22;10857;52.228;21.026;2023-12-29T09:25:13;7.60;99.90
21393;DHT22;10857;52.228;21.026;2023-12-29T09:27:40;7.50;99.90
21393;DHT22;10857;52.228;21.026;2023-12-29T09:30:07;7.60;99.90
21393;DHT22;10857;52.228;21.026;2023-12-29T09:32:35;7.70;99.90
21393;DHT22;10857;52.228;21.026;2023-12-29T09:35:02;7.80;99.90
21393;DHT22;10857;52.228;21.026;2023-12-29T09:37:30;8.00;99.90
21393;DHT22;10857;52.228;21.026;2023-12-29T09:39:57;8.10;99.90
21393;DHT22;10857;52.228;21.026;2023-12-29T09:42:28;8.10;99.90
21393;DHT22;10857;52.228;21.026;2023-12-29T09:44:55;8.20;99.90
21393;DHT22;10857;52.228;21.026;2023-12-29T09:47:24;8.30;99.90
21393;DHT22;10857;52.228;21.026;2023-12-29T09:49:52;8.40;99.90
21393;DHT22;10857;52.228;21.026;2023-12-29T09:52:22;8.40;99.90
21393;DHT22;10857;52.228;21.026;2023-12-29T09:54:52;8.50;99.90
21393;DHT22;10857;52.228;21.026;2023-12-29T09:57:20;8.50;99.90
21393;DHT22;10857;52.228;21.026;2023-12-29T09:59:49;8.60;99.90
21393;DHT22;10857;52.228;21.026;2023-12-29T10:02:20;8.60;99.90
21393;DHT22;10857;52.228;21.026;2023-12-29T10:04:49;8.60;99.90
21393;DHT22;10857;52.228;21.026;2023-12-29T10:07:24;8.70;99.90
21393;DHT22;10857;52.228;21.026;2023-12-29T10:09:57;8.70;99.90
21393;DHT22;10857;52.228;21.026;2023-12-29T10:12:27;8.70;99.90
21393;DHT22;10857;52.228;21.026;2023-12-29T10:25:12;8.90;99.90
21393;DHT22;10857;52.228;21.026;2023-12-29T10:27:40;8.90;99.90
21393;DHT22;10857;52.228;21.026;2023-12-29T10:30:09;9.00;99.90
21393;DHT22;10857;52.228;21.026;2023-12-29T10:32:52;9.00;99.90
21393;DHT22;10857;52.228;21.026;2023-12-29T10:35:19;9.10;99.80
21393;DHT22;10857;52.228;21.026;2023-12-29T10:37:46;9.10;99.30
21393;DHT22;10857;52.228;21.026;2023-12-29T10:40:21;9.20;98.50
21393;DHT22;10857;52.228;21.026;2023-12-29T10:42:52;9.20;98.50
21393;DHT22;10857;52.228;21.026;2023-12-29T10:45:21;9.30;97.40
21393;DHT22;10857;52.228;21.026;2023-12-29T10:47:49;9.30;97.00
21393;DHT22;10857;52.228;21.026;2023-12-29T10:50:16;9.30;97.40
21393;DHT22;10857;52.228;21.026;2023-12-29T10:52:43;9.30;97.20
21393;DHT22;10857;52.228;21.026;2023-12-29T10:55:11;9.30;97.60
21393;DHT22;10857;52.228;21.026;2023-12-29T10:57:39;9.40;97.10
21393;DHT22;10857;52.228;21.026;2023-12-29T11:00:07;9.30;96.80
21393;DHT22;10857;52.228;21.026;2023-12-29T11:02:35;9.40;96.60
21393;DHT22;10857;52.228;21.026;2023-12-29T11:05:07;9.40;96.70
21393;DHT22;10857;52.228;21.026;2023-12-29T11:07:39;9.40;96.40
21393;DHT22;10857;52.228;21.026;2023-12-29T11:10:07;9.40;96.40
21393;DHT22;10857;52.228;21.026;2023-12-29T11:12:36;9.40;96.40
21393;DHT22;10857;52.228;21.026;2023-12-29T11:15:05;9.40;96.40
21393;DHT22;10857;52.228;21.026;2023-12-29T11:17:34;9.40;96.20
21393;DHT22;10857;52.228;21.026;2023-12-29T11:20:03;9.50;96.00
21393;DHT22;10857;52.228;21.026;2023-12-29T11:22:32;9.50;95.80
21393;DHT22;10857;52.228;21.026;2023-12-29T11:24:59;9.50;96.00
21393;DHT22;10857;52.228;21.026;2023-12-29T11:27:28;9.60;95.10
21393;DHT22;10857;52.228;21.026;2023-12-29T11:30:00;9.60;95.10
21393;DHT22;10857;52.228;21.026;2023-12-29T11:32:52;9.60;94.80
21393;DHT22;10857;52.228;21.026;2023-12-29T11:35:21;9.60;94.50
21393;DHT22;10857;52.228;21.026;2023-12-29T11:40:51;9.60;94.60
21393;DHT22;10857;52.228;21.026;2023-12-29T11:43:19;9.60;94.80
21393;DHT22;10857;52.228;21.026;2023-12-29T11:45:47;9.60;94.50
21393;DHT22;10857;52.228;21.026;2023-12-29T11:48:53;9.60;94.70
21393;DHT22;10857;52.228;21.026;2023-12-29T11:51:36;9.60;94.50
21393;DHT22;10857;52.228;21.026;2023-12-29T11:54:04;9.60;94.70
21393;DHT22;10857;52.228;21.026;2023-12-29T11:56:40;9.60;94.50
21393;DHT22;10857;52.228;21.026;2023-12-29T11:59:14;9.60;94.50
21393;DHT22;10857;52.228;21.026;2023-12-29T12:01:42;9.70;94.10
21393;DHT22;10857;52.228;21.026;2023-12-29T12:04:44;9.70;93.70
21393;DHT22;10857;52.228;21.026;2023-12-29T12:12:47;9.70;93.80
21393;DHT22;10857;52.228;21.026;2023-12-29T12:18:00;9.80;93.30
21393;DHT22;10857;52.228;21.026;2023-12-29T12:20:28;9.70;93.50
21393;DHT22;10857;52.228;21.026;2023-12-29T12:23:00;9.70;93.60
21393;DHT22;10857;52.228;21.026;2023-12-29T12:25:30;9.70;93.90
21393;DHT22;10857;52.228;21.026;2023-12-29T12:27:58;9.70;93.70
21393;DHT22;10857;52.228;21.026;2023-12-29T12:30:25;9.70;93.80
21393;DHT22;10857;52.228;21.026;2023-12-29T12:33:00;9.70;93.90
21393;DHT22;10857;52.228;21.026;2023-12-29T12:35:29;9.80;93.50
21393;DHT22;10857;52.228;21.026;2023-12-29T12:38:15;9.80;93.20
21393;DHT22;10857;52.228;21.026;2023-12-29T12:40:49;9.80;93.10
21393;DHT22;10857;52.228;21.026;2023-12-29T12:43:17;9.80;93.40
21393;DHT22;10857;52.228;21.026;2023-12-29T12:45:54;9.70;93.40
21393;DHT22;10857;52.228;21.026;2023-12-29T12:48:43;9.80;93.20
21393;DHT22;10857;52.228;21.026;2023-12-29T12:51:11;9.80;93.70
21393;DHT22;10857;52.228;21.026;2023-12-29T12:53:40;9.80;93.20
21393;DHT22;10857;52.228;21.026;2023-12-29T12:56:08;9.90;92.90
21393;DHT22;10857;52.228;21.026;2023-12-29T12:58:35;9.90;92.70
21393;DHT22;10857;52.228;21.026;2023-12-29T13:01:03;9.90;92.90
21393;DHT22;10857;52.228;21.026;2023-12-29T13:03:31;9.90;92.70
21393;DHT22;10857;52.228;21.026;2023-12-29T13:06:00;9.90;93.00
21393;DHT22;10857;52.228;21.026;2023-12-29T13:08:28;9.90;93.20
21393;DHT22;10857;52.228;21.026;2023-12-29T13:11:04;9.90;92.80
21393;DHT22;10857;52.228;21.026;2023-12-29T13:13:42;9.90;93.00
21393;DHT22;10857;52.228;21.026;2023-12-29T13:16:10;9.90;93.10
21393;DHT22;10857;52.228;21.026;2023-12-29T13:18:38;9.90;93.10
21393;DHT22;10857;52.228;21.026;2023-12-29T13:21:06;9.90;93.10
21393;DHT22;10857;52.228;21.026;2023-12-29T13:23:35;10.00;92.70
21393;DHT22;10857;52.228;21.026;2023-12-29T13:26:09;10.00;92.60
21393;DHT22;10857;52.228;21.026;2023-12-29T13:28:37;10.00;92.50
21393;DHT22;10857;52.228;21.026;2023-12-29T13:31:10;10.00;92.60
21393;DHT22;10857;52.228;21.026;2023-12-29T13:33:47;9.90;92.80
21393;DHT22;10857;52.228;21.026;2023-12-29T13:36:35;9.90;93.20
21393;DHT22;10857;52.228;21.026;2023-12-29T13:39:15;10.00;92.80
21393;DHT22;10857;52.228;21.026;2023-12-29T13:41:48;9.90;93.30
21393;DHT22;10857;52.228;21.026;2023-12-29T13:44:16;9.90;93.20
21393;DHT22;10857;52.228;21.026;2023-12-29T13:46:44;9.90;93.40
21393;DHT22;10857;52.228;21.026;2023-12-29T13:49:12;9.90;93.70
21393;DHT22;10857;52.228;21.026;2023-12-29T13:51:42;9.90;93.60
21393;DHT22;10857;52.228;21.026;2023-12-29T13:54:09;9.90;93.50
21393;DHT22;10857;52.228;21.026;2023-12-29T13:56:36;9.90;93.70
21393;DHT22;10857;52.228;21.026;2023-12-29T13:59:04;9.90;93.70
21393;DHT22;10857;52.228;21.026;2023-12-29T14:01:37;10.00;93.20
21393;DHT22;10857;52.228;21.026;2023-12-29T14:04:07;10.00;93.30
21393;DHT22;10857;52.228;21.026;2023-12-29T14:07:02;9.90;93.80
21393;DHT22;10857;52.228;21.026;2023-12-29T14:09:29;9.90;93.70
21393;DHT22;10857;52.228;21.026;2023-12-29T14:11:56;9.90;93.90
21393;DHT22;10857;52.228;21.026;2023-12-29T14:14:24;9.90;94.00
21393;DHT22;10857;52.228;21.026;2023-12-29T14:16:53;9.90;94.10
21393;DHT22;10857;52.228;21.026;2023-12-29T14:19:20;9.90;94.10
21393;DHT22;10857;52.228;21.026;2023-12-29T14:21:50;9.80;94.40
21393;DHT22;10857;52.228;21.026;2023-12-29T14:24:18;9.90;94.30
21393;DHT22;10857;52.228;21.026;2023-12-29T14:29:20;9.90;94.10
21393;DHT22;10857;52.228;21.026;2023-12-29T14:31:49;9.90;93.80
21393;DHT22;10857;52.228;21.026;2023-12-29T14:34:19;9.90;93.50
21393;DHT22;10857;52.228;21.026;2023-12-29T14:36:47;9.90;93.60
21393;DHT22;10857;52.228;21.026;2023-12-29T14:39:14;9.90;93.30
21393;DHT22;10857;52.228;21.026;2023-12-29T14:41:44;9.90;93.20
21393;DHT22;10857;52.228;21.026;2023-12-29T14:44:12;10.00;93.70
21393;DHT22;10857;52.228;21.026;2023-12-29T14:46:40;10.00;92.50
21393;DHT22;10857;52.228;21.026;2023-12-29T14:49:07;10.00;92.70
21393;DHT22;10857;52.228;21.026;2023-12-29T14:51:35;10.00;92.50
21393;DHT22;10857;52.228;21.026;2023-12-29T14:54:02;10.00;92.20
21393;DHT22;10857;52.228;21.026;2023-12-29T14:56:32;10.00;92.50
21393;DHT22;10857;52.228;21.026;2023-12-29T14:58:59;10.00;92.60
21393;DHT22;10857;52.228;21.026;2023-12-29T15:01:26;10.00;92.90
21393;DHT22;10857;52.228;21.026;2023-12-29T15:03:54;9.90;92.90
21393;DHT22;10857;52.228;21.026;2023-12-29T15:06:22;9.90;93.10
21393;DHT22;10857;52.228;21.026;2023-12-29T15:08:49;9.90;92.90
21393;DHT22;10857;52.228;21.026;2023-12-29T15:11:17;9.90;92.80
21393;DHT22;10857;52.228;21.026;2023-12-29T15:13:45;9.90;92.90
21393;DHT22;10857;52.228;21.026;2023-12-29T15:16:12;9.90;93.20
21393;DHT22;10857;52.228;21.026;2023-12-29T15:18:40;9.90;93.10
21393;DHT22;10857;52.228;21.026;2023-12-29T15:21:07;9.90;93.20
21393;DHT22;10857;52.228;21.026;2023-12-29T15:23:34;9.90;93.20
21393;DHT22;10857;52.228;21.026;2023-12-29T15:26:01;9.90;93.10
21393;DHT22;10857;52.228;21.026;2023-12-29T15:28:28;9.90;93.00
21393;DHT22;10857;52.228;21.026;2023-12-29T15:30:55;9.80;93.40
21393;DHT22;10857;52.228;21.026;2023-12-29T15:33:23;9.90;93.10
21393;DHT22;10857;52.228;21.026;2023-12-29T15:35:52;9.90;93.00
21393;DHT22;10857;52.228;21.026;2023-12-29T15:38:19;9.80;93.30
21393;DHT22;10857;52.228;21.026;2023-12-29T15:40:46;9.80;93.20
21393;DHT22;10857;52.228;21.026;2023-12-29T15:43:14;9.80;93.40
21393;DHT22;10857;52.228;21.026;2023-12-29T15:45:41;9.80;93.30
21393;DHT22;10857;52.228;21.026;2023-12-29T15:48:08;9.80;93.30
21393;DHT22;10857;52.228;21.026;2023-12-29T15:50:35;9.80;93.30
21393;DHT22;10857;52.228;21.026;2023-12-29T15:53:03;9.80;93.30
21393;DHT22;10857;52.228;21.026;2023-12-29T15:55:30;9.80;93.40
21393;DHT22;10857;52.228;21.026;2023-12-29T15:57:57;9.80;93.70
21393;DHT22;10857;52.228;21.026;2023-12-29T16:00:26;9.80;93.80
21393;DHT22;10857;52.228;21.026;2023-12-29T16:02:53;9.70;94.20
21393;DHT22;10857;52.228;21.026;2023-12-29T16:05:20;9.70;94.40
21393;DHT22;10857;52.228;21.026;2023-12-29T16:07:47;9.70;94.70